createdAt,value
2023-02-11T00:01:49.397Z,6.60
2023-02-11T00:04:16.106Z,6.60
2023-02-11T00:06:42.711Z,6.50
2023-02-11T00:09:10.397Z,6.40
2023-02-11T00:11:37.077Z,6.40
2023-02-11T00:14:07.616Z,6.30
2023-02-11T00:16:34.545Z,6.20
2023-02-11T00:19:02.325Z,6.20
2023-02-11T00:21:29.749Z,6.10
2023-02-11T00:23:57.176Z,6.00
2023-02-11T00:26:32.611Z,6.10
2023-02-11T00:29:00.770Z,6.00
2023-02-11T00:31:28.142Z,5.90
2023-02-11T00:33:55.083Z,5.90
2023-02-11T00:36:25.122Z,5.90
2023-02-11T00:38:53.262Z,5.90
2023-02-11T00:41:21.171Z,5.80
2023-02-11T00:43:48.215Z,5.80
2023-02-11T00:46:15.757Z,5.80
2023-02-11T00:48:42.402Z,5.70
2023-02-11T00:51:09.544Z,5.60
2023-02-11T00:53:36.131Z,5.60
2023-02-11T00:56:02.827Z,5.60
2023-02-11T00:58:29.480Z,5.60
2023-02-11T01:00:56.397Z,5.50
2023-02-11T01:03:23.494Z,5.50
2023-02-11T01:05:50.258Z,5.50
2023-02-11T01:08:17.036Z,5.60
2023-02-11T01:10:43.965Z,5.70
2023-02-11T01:13:10.975Z,5.70
2023-02-11T01:15:37.631Z,5.80
2023-02-11T01:18:05.721Z,5.90
2023-02-11T01:20:32.802Z,5.90
2023-02-11T01:22:59.410Z,6.00
2023-02-11T01:25:26.023Z,6.00
2023-02-11T01:27:52.617Z,6.10
2023-02-11T01:30:19.508Z,6.10
2023-02-11T01:32:46.077Z,6.20
2023-02-11T01:35:12.744Z,6.10
2023-02-11T01:37:39.452Z,6.10
2023-02-11T01:40:08.710Z,6.10
2023-02-11T01:42:35.389Z,6.10
2023-02-11T01:45:22.060Z,6.00
2023-02-11T01:47:48.623Z,6.10
2023-02-11T01:50:15.309Z,6.00
2023-02-11T01:52:42.542Z,6.00
2023-02-11T01:55:30.922Z,6.00
2023-02-11T01:58:02.339Z,6.00
2023-02-11T02:00:38.800Z,5.90
2023-02-11T02:03:14.185Z,5.90
2023-02-11T02:05:53.119Z,5.90
2023-02-11T02:08:26.169Z,5.80
2023-02-11T02:10:56.619Z,5.70
2023-02-11T02:13:23.878Z,5.70
2023-02-11T02:16:06.668Z,5.70
2023-02-11T02:18:52.954Z,5.60
2023-02-11T02:21:47.432Z,5.60
2023-02-11T02:24:32.648Z,5.50
2023-02-11T02:27:25.769Z,5.50
2023-02-11T02:29:55.222Z,5.40
2023-02-11T02:32:46.207Z,5.50
2023-02-11T02:35:27.012Z,5.50
2023-02-11T02:38:26.430Z,5.40
2023-02-11T02:41:17.561Z,5.40
2023-02-11T02:43:47.620Z,5.40
2023-02-11T02:46:20.995Z,5.40
2023-02-11T02:48:52.620Z,5.40
2023-02-11T02:51:52.435Z,5.30
2023-02-11T02:54:43.929Z,5.30
2023-02-11T02:57:43.293Z,5.30
2023-02-11T03:00:31.151Z,5.30
2023-02-11T03:03:22.208Z,5.30
2023-02-11T03:06:11.188Z,5.30
2023-02-11T03:08:50.940Z,5.40
2023-02-11T03:11:19.320Z,5.50
2023-02-11T03:13:48.479Z,5.60
2023-02-11T03:16:38.965Z,5.60
2023-02-11T03:19:12.556Z,5.70
2023-02-11T03:21:41.635Z,5.80
2023-02-11T03:24:14.577Z,5.70
2023-02-11T03:26:48.621Z,5.80
2023-02-11T03:29:37.446Z,5.80
2023-02-11T03:32:15.961Z,5.80
2023-02-11T03:34:42.943Z,5.80
2023-02-11T03:37:12.208Z,5.90
2023-02-11T03:39:44.288Z,6.00
2023-02-11T03:42:13.351Z,5.90
2023-02-11T03:44:48.638Z,6.00
2023-02-11T03:47:18.493Z,6.00
2023-02-11T03:49:46.974Z,6.00
2023-02-11T03:52:15.458Z,6.00
2023-02-11T03:54:45.900Z,6.10
2023-02-11T03:57:12.457Z,6.10
2023-02-11T03:59:56.624Z,6.10
2023-02-11T04:02:32.886Z,6.10
2023-02-11T04:04:59.944Z,6.10
2023-02-11T04:07:26.834Z,6.10
2023-02-11T04:09:54.066Z,6.20
2023-02-11T04:12:21.081Z,6.10
2023-02-11T04:14:47.640Z,6.00
2023-02-11T04:17:14.249Z,6.00
2023-02-11T04:19:40.899Z,5.90
2023-02-11T04:22:07.588Z,5.80
2023-02-11T04:24:34.642Z,5.90
2023-02-11T04:27:01.413Z,5.80
2023-02-11T04:29:28.355Z,5.70
2023-02-11T04:31:55.227Z,5.70
2023-02-11T04:34:24.334Z,5.70
2023-02-11T04:36:50.971Z,5.80
2023-02-11T04:39:17.655Z,5.70
2023-02-11T04:41:44.240Z,5.70
2023-02-11T04:44:10.935Z,5.70
2023-02-11T04:46:37.586Z,5.70
2023-02-11T04:49:04.308Z,5.70
2023-02-11T04:51:31.311Z,5.70
2023-02-11T04:53:57.943Z,5.70
2023-02-11T04:56:24.530Z,5.70
2023-02-11T04:58:51.099Z,5.70
2023-02-11T05:01:17.898Z,5.60
2023-02-11T05:03:44.637Z,5.70
2023-02-11T05:06:11.936Z,5.70
2023-02-11T05:08:39.118Z,5.70
2023-02-11T05:11:06.021Z,5.60
2023-02-11T05:13:33.018Z,5.60
2023-02-11T05:15:59.640Z,5.60
2023-02-11T05:18:26.214Z,5.70
2023-02-11T05:20:52.762Z,5.60
2023-02-11T05:23:19.379Z,5.60
2023-02-11T05:25:46.202Z,5.60
2023-02-11T05:28:12.781Z,5.60
2023-02-11T05:30:39.398Z,5.60
2023-02-11T05:33:06.054Z,5.60
2023-02-11T05:35:32.636Z,5.60
2023-02-11T05:37:59.333Z,5.60
2023-02-11T05:40:25.867Z,5.50
2023-02-11T05:42:52.445Z,5.60
2023-02-11T05:45:19.136Z,5.60
2023-02-11T05:47:45.703Z,5.70
2023-02-11T05:50:12.260Z,5.70
2023-02-11T05:52:38.838Z,5.80
2023-02-11T05:55:05.955Z,5.80
2023-02-11T05:57:32.602Z,5.80
2023-02-11T05:59:59.154Z,5.80
2023-02-11T06:02:25.828Z,5.80
2023-02-11T06:04:52.589Z,5.80
2023-02-11T06:07:19.669Z,5.80
2023-02-11T06:09:46.254Z,5.80
2023-02-11T06:12:12.807Z,5.80
2023-02-11T06:14:39.572Z,5.80
2023-02-11T06:17:06.134Z,5.80
2023-02-11T06:19:32.678Z,5.80
2023-02-11T06:21:59.270Z,5.80
2023-02-11T06:24:51.000Z,5.80
2023-02-11T06:27:12.631Z,5.80
2023-02-11T06:29:39.409Z,5.70
2023-02-11T06:32:06.079Z,5.80
2023-02-11T06:34:32.770Z,5.80
2023-02-11T06:36:59.369Z,5.90
2023-02-11T06:39:25.937Z,5.90
2023-02-11T06:41:52.576Z,5.90
2023-02-11T06:44:19.122Z,5.90
2023-02-11T06:46:45.802Z,5.80
2023-02-11T06:49:12.417Z,5.90
2023-02-11T06:51:39.073Z,5.90
2023-02-11T06:54:06.745Z,5.90
2023-02-11T06:56:33.572Z,5.90
2023-02-11T06:59:00.592Z,6.00
2023-02-11T07:01:28.090Z,5.90
2023-02-11T07:03:54.905Z,5.90
2023-02-11T07:06:24.762Z,5.90
2023-02-11T07:08:51.405Z,5.90
2023-02-11T07:11:24.393Z,5.90
2023-02-11T07:13:52.568Z,5.90
2023-02-11T07:16:20.193Z,5.90
2023-02-11T07:18:47.937Z,5.80
2023-02-11T07:21:18.676Z,5.80
2023-02-11T07:23:45.544Z,5.80
2023-02-11T07:26:14.987Z,5.90
2023-02-11T07:28:42.231Z,5.80
2023-02-11T07:31:14.735Z,5.80
2023-02-11T07:33:41.958Z,5.90
2023-02-11T07:36:10.500Z,5.90
2023-02-11T07:38:38.046Z,5.80
2023-02-11T07:41:10.344Z,5.90
2023-02-11T07:43:38.000Z,5.90
2023-02-11T07:46:11.356Z,5.90
2023-02-11T07:48:38.056Z,5.90
2023-02-11T07:51:10.553Z,6.00
2023-02-11T07:53:37.684Z,5.90
2023-02-11T07:56:05.474Z,5.90
2023-02-11T07:58:32.687Z,5.90
2023-02-11T08:01:07.677Z,5.90
2023-02-11T08:03:35.596Z,5.90
2023-02-11T08:06:07.871Z,5.90
2023-02-11T08:08:34.791Z,6.00
2023-02-11T08:11:07.743Z,6.00
2023-02-11T08:13:34.907Z,6.00
2023-02-11T08:16:01.630Z,6.00
2023-02-11T08:18:28.260Z,6.10
2023-02-11T08:20:54.912Z,6.10
2023-02-11T08:23:21.480Z,6.10
2023-02-11T08:25:48.059Z,6.20
2023-02-11T08:28:14.676Z,6.20
2023-02-11T08:30:41.481Z,6.20
2023-02-11T08:33:08.087Z,6.30
2023-02-11T08:35:36.325Z,6.20
2023-02-11T08:38:02.914Z,6.30
2023-02-11T08:40:29.506Z,6.20
2023-02-11T08:42:56.323Z,6.20
2023-02-11T08:45:22.868Z,6.30
2023-02-11T08:47:49.508Z,6.30
2023-02-11T08:50:16.062Z,6.30
2023-02-11T08:52:43.055Z,6.30
2023-02-11T08:55:09.935Z,6.20
2023-02-11T08:57:36.621Z,6.20
2023-02-11T09:00:04.005Z,6.20
2023-02-11T09:02:30.674Z,6.20
2023-02-11T09:04:57.255Z,6.20
2023-02-11T09:07:23.823Z,6.10
2023-02-11T09:09:50.387Z,6.10
2023-02-11T09:12:16.972Z,6.10
2023-02-11T09:14:43.636Z,6.20
2023-02-11T09:17:10.298Z,6.20
2023-02-11T09:19:36.966Z,6.20
2023-02-11T09:22:03.605Z,6.20
2023-02-11T09:24:30.160Z,6.20
2023-02-11T09:26:56.700Z,6.20
2023-02-11T09:29:23.484Z,6.20
2023-02-11T09:31:50.290Z,6.20
2023-02-11T09:34:17.225Z,6.20
2023-02-11T09:36:43.819Z,6.20
2023-02-11T09:39:16.794Z,6.30
2023-02-11T09:42:21.071Z,6.30
2023-02-11T09:44:48.015Z,6.30
2023-02-11T09:47:36.952Z,6.30
2023-02-11T09:50:10.464Z,6.30
2023-02-11T09:52:56.665Z,6.30
2023-02-11T09:55:46.898Z,6.30
2023-02-11T09:58:16.364Z,6.40
2023-02-11T10:00:57.527Z,6.30
2023-02-11T10:03:46.184Z,6.40
2023-02-11T10:06:32.394Z,6.40
2023-02-11T10:09:30.296Z,6.40
2023-02-11T10:12:30.419Z,6.40
2023-02-11T10:15:09.257Z,6.50
2023-02-11T10:17:55.180Z,6.50
2023-02-11T10:20:36.599Z,6.50
2023-02-11T10:23:24.759Z,6.50
2023-02-11T10:25:56.577Z,6.50
2023-02-11T10:28:29.735Z,6.60
2023-02-11T10:31:35.775Z,6.60
2023-02-11T10:34:11.351Z,6.70
2023-02-11T10:36:41.897Z,6.70
2023-02-11T10:39:13.657Z,6.80
2023-02-11T10:41:49.195Z,6.80
2023-02-11T10:44:38.534Z,6.80
2023-02-11T10:47:27.549Z,6.80
2023-02-11T10:49:54.411Z,6.80
2023-02-11T10:52:26.396Z,6.80
2023-02-11T10:55:10.480Z,6.80
2023-02-11T10:57:44.557Z,6.90
2023-02-11T11:00:29.818Z,6.90
2023-02-11T11:02:59.990Z,6.90
2023-02-11T11:05:38.401Z,6.90
2023-02-11T11:08:07.581Z,6.90
2023-02-11T11:11:05.070Z,6.90
2023-02-11T11:13:37.775Z,7.00
2023-02-11T11:16:33.939Z,6.90
2023-02-11T11:19:06.600Z,7.00
2023-02-11T11:21:51.362Z,7.00
2023-02-11T11:24:44.284Z,7.10
2023-02-11T11:27:19.494Z,7.10
2023-02-11T11:29:57.216Z,7.10
2023-02-11T11:32:28.234Z,7.10
2023-02-11T11:34:59.665Z,7.10
2023-02-11T11:37:29.341Z,7.00
2023-02-11T11:40:22.033Z,7.00
2023-02-11T11:43:03.393Z,7.10
2023-02-11T11:45:30.255Z,7.20
2023-02-11T11:48:14.616Z,7.10
2023-02-11T11:50:52.406Z,7.10
2023-02-11T11:53:34.291Z,7.10
2023-02-11T11:56:16.555Z,7.20
2023-02-11T11:58:43.754Z,7.20
2023-02-11T12:01:50.445Z,7.20
2023-02-11T12:04:42.049Z,7.20
2023-02-11T12:07:36.886Z,7.20
2023-02-11T12:10:39.778Z,7.30
2023-02-11T12:13:25.441Z,7.40
2023-02-11T12:16:03.815Z,7.30
2023-02-11T12:18:55.074Z,7.30
2023-02-11T12:21:37.656Z,7.40
2023-02-11T12:24:29.905Z,7.50
2023-02-11T12:27:00.092Z,7.50
2023-02-11T12:29:51.511Z,7.60
2023-02-11T12:32:38.230Z,7.60
2023-02-11T12:35:22.980Z,7.60
2023-02-11T12:38:15.915Z,7.70
2023-02-11T12:40:50.123Z,7.70
2023-02-11T12:43:38.256Z,7.70
2023-02-11T12:46:33.215Z,7.80
2023-02-11T12:49:22.136Z,7.70
2023-02-11T12:51:57.891Z,7.80
2023-02-11T12:54:54.296Z,7.80
2023-02-11T12:57:27.600Z,7.80
2023-02-11T13:00:00.265Z,7.80
2023-02-11T13:02:45.584Z,7.90
2023-02-11T13:05:27.139Z,7.90
2023-02-11T13:08:02.331Z,7.90
2023-02-11T13:10:36.454Z,7.80
2023-02-11T13:13:16.547Z,7.80
2023-02-11T13:15:46.526Z,7.90
2023-02-11T13:18:22.401Z,7.90
2023-02-11T13:20:56.561Z,7.90
2023-02-11T13:23:31.725Z,7.90
2023-02-11T13:26:07.363Z,7.90
2023-02-11T13:28:48.830Z,7.90
2023-02-11T13:31:16.754Z,7.90
2023-02-11T13:33:44.279Z,7.90
2023-02-11T13:36:14.513Z,8.00
2023-02-11T13:38:50.473Z,7.90
2023-02-11T13:41:29.427Z,7.90
2023-02-11T13:44:09.561Z,7.90
2023-02-11T13:47:05.090Z,7.90
2023-02-11T13:49:35.568Z,7.80
2023-02-11T13:52:05.838Z,7.80
2023-02-11T13:54:39.560Z,7.80
2023-02-11T13:57:21.400Z,7.90
2023-02-11T13:59:56.881Z,7.90
2023-02-11T14:02:48.821Z,7.90
2023-02-11T14:05:36.735Z,7.80
2023-02-11T14:08:27.776Z,7.80
2023-02-11T14:10:59.840Z,7.80
2023-02-11T14:13:32.647Z,7.80
2023-02-11T14:16:06.931Z,7.90
2023-02-11T14:18:45.534Z,7.90
2023-02-11T14:21:40.209Z,7.90
2023-02-11T14:24:09.985Z,7.80
2023-02-11T14:26:56.248Z,7.90
2023-02-11T14:29:30.049Z,7.90
2023-02-11T14:32:25.242Z,7.90
2023-02-11T14:34:54.661Z,7.90
2023-02-11T14:37:35.456Z,7.80
2023-02-11T14:40:17.714Z,7.90
2023-02-11T14:42:45.376Z,7.90
2023-02-11T14:45:19.961Z,7.90
2023-02-11T14:47:58.182Z,7.90
2023-02-11T14:50:47.351Z,7.80
2023-02-11T14:53:18.154Z,7.80
2023-02-11T14:55:53.903Z,7.90
2023-02-11T14:58:24.221Z,8.00
2023-02-11T15:01:02.628Z,8.00
2023-02-11T15:03:32.568Z,8.00
2023-02-11T15:06:21.227Z,8.00
2023-02-11T15:08:54.343Z,8.00
2023-02-11T15:11:23.815Z,8.00
2023-02-11T15:13:53.702Z,8.10
2023-02-11T15:16:28.279Z,8.10
2023-02-11T15:19:00.517Z,8.00
2023-02-11T15:21:30.800Z,8.00
2023-02-11T15:24:23.817Z,8.00
2023-02-11T15:27:15.956Z,8.10
2023-02-11T15:29:49.156Z,8.20
2023-02-11T15:32:18.245Z,8.20
2023-02-11T15:34:46.614Z,8.20
2023-02-11T15:37:20.910Z,8.20
2023-02-11T15:39:48.149Z,8.20
2023-02-11T15:42:17.566Z,8.10
2023-02-11T15:44:44.368Z,8.10
2023-02-11T15:47:12.980Z,8.00
2023-02-11T15:49:45.220Z,8.00
2023-02-11T15:52:14.140Z,8.10
2023-02-11T15:54:45.561Z,8.10
2023-02-11T15:57:12.500Z,8.00
2023-02-11T15:59:41.527Z,8.00
2023-02-11T16:02:31.218Z,7.90
2023-02-11T16:05:04.240Z,7.90
2023-02-11T16:07:46.955Z,7.90
2023-02-11T16:10:24.693Z,7.90
2023-02-11T16:13:11.653Z,8.00
2023-02-11T16:15:45.140Z,7.90
2023-02-11T16:18:38.461Z,7.90
2023-02-11T16:21:12.177Z,7.90
2023-02-11T16:23:44.285Z,7.80
2023-02-11T16:26:27.207Z,7.80
2023-02-11T16:29:01.920Z,7.80
2023-02-11T16:31:37.502Z,7.80
2023-02-11T16:34:12.133Z,7.80
2023-02-11T16:36:38.788Z,7.80
2023-02-11T16:39:05.368Z,7.80
2023-02-11T16:41:31.924Z,7.70
2023-02-11T16:43:59.023Z,7.80
2023-02-11T16:46:27.272Z,7.70
2023-02-11T16:48:58.692Z,7.60
2023-02-11T16:51:25.443Z,7.60
2023-02-11T16:53:51.985Z,7.60
2023-02-11T16:56:18.689Z,7.60
2023-02-11T16:58:45.600Z,7.60
2023-02-11T17:01:14.091Z,7.60
2023-02-11T17:03:40.989Z,7.50
2023-02-11T17:06:10.631Z,7.50
2023-02-11T17:08:37.296Z,7.50
2023-02-11T17:11:04.334Z,7.50
2023-02-11T17:13:31.092Z,7.50
2023-02-11T17:15:57.875Z,7.50
2023-02-11T17:18:24.499Z,7.50
2023-02-11T17:20:51.178Z,7.50
2023-02-11T17:23:17.855Z,7.50
2023-02-11T17:25:44.459Z,7.50
2023-02-11T17:28:12.140Z,7.50
2023-02-11T17:30:41.351Z,7.50
2023-02-11T17:33:07.978Z,7.40
2023-02-11T17:35:34.767Z,7.40
2023-02-11T17:38:01.424Z,7.40
2023-02-11T17:40:28.040Z,7.40
2023-02-11T17:42:54.603Z,7.40
2023-02-11T17:45:22.387Z,7.40
2023-02-11T17:47:49.392Z,7.40
2023-02-11T17:50:16.189Z,7.50
2023-02-11T17:52:42.823Z,7.50
2023-02-11T17:55:09.414Z,7.40
2023-02-11T17:57:36.445Z,7.40
2023-02-11T18:00:06.274Z,7.50
2023-02-11T18:02:32.907Z,7.50
2023-02-11T18:04:59.590Z,7.40
2023-02-11T18:07:26.644Z,7.40
2023-02-11T18:09:53.265Z,7.40
2023-02-11T18:12:25.108Z,7.40
2023-02-11T18:14:58.025Z,7.40
2023-02-11T18:17:25.208Z,7.40
2023-02-11T18:19:55.948Z,7.50
2023-02-11T18:22:22.801Z,7.50
2023-02-11T18:24:54.362Z,7.50
2023-02-11T18:27:21.976Z,7.50
2023-02-11T18:29:48.619Z,7.50
2023-02-11T18:32:15.195Z,7.50
2023-02-11T18:34:42.130Z,7.50
2023-02-11T18:37:08.953Z,7.50
2023-02-11T18:39:35.974Z,7.50
2023-02-11T18:42:02.670Z,7.50
2023-02-11T18:44:29.367Z,7.40
2023-02-11T18:46:55.927Z,7.50
2023-02-11T18:49:22.520Z,7.50
2023-02-11T18:51:49.166Z,7.50
2023-02-11T18:55:05.423Z,7.60
2023-02-11T18:57:32.302Z,7.50
2023-02-11T18:59:58.918Z,7.60
2023-02-11T19:02:25.502Z,7.60
2023-02-11T19:04:52.296Z,7.60
2023-02-11T19:07:18.876Z,7.50
2023-02-11T19:09:45.600Z,7.50
2023-02-11T19:12:12.176Z,7.50
2023-02-11T19:14:38.765Z,7.50
2023-02-11T19:17:07.657Z,7.50
2023-02-11T19:19:36.195Z,7.50
2023-02-11T19:22:08.518Z,7.50
2023-02-11T19:24:37.174Z,7.50
2023-02-11T19:27:05.060Z,7.50
2023-02-11T19:29:33.471Z,7.50
2023-02-11T19:32:00.193Z,7.50
2023-02-11T19:34:26.941Z,7.40
2023-02-11T19:36:54.242Z,7.40
2023-02-11T19:39:21.386Z,7.40
2023-02-11T19:41:48.025Z,7.40
2023-02-11T19:44:14.717Z,7.50
2023-02-11T19:46:41.755Z,7.40
2023-02-11T19:49:09.865Z,7.40
2023-02-11T19:51:39.097Z,7.50
2023-02-11T19:54:06.884Z,7.40
2023-02-11T19:56:33.730Z,7.40
2023-02-11T19:59:02.526Z,7.40
2023-02-11T20:01:29.346Z,7.30
2023-02-11T20:03:57.388Z,7.40
2023-02-11T20:06:28.008Z,7.30
2023-02-11T20:08:58.416Z,7.40
2023-02-11T20:11:27.896Z,7.40
2023-02-11T20:13:54.906Z,7.40
2023-02-11T20:16:27.013Z,7.40
2023-02-11T20:19:00.691Z,7.40
2023-02-11T20:21:30.066Z,7.40
2023-02-11T20:23:57.789Z,7.40
2023-02-11T20:26:26.706Z,7.40
2023-02-11T20:28:55.005Z,7.40
2023-02-11T20:31:25.952Z,7.30
2023-02-11T20:33:52.639Z,7.40
2023-02-11T20:36:22.148Z,7.40
2023-02-11T20:38:49.226Z,7.40
2023-02-11T20:41:19.772Z,7.40
2023-02-11T20:43:48.657Z,7.40
2023-02-11T20:46:16.979Z,7.40
2023-02-11T20:48:43.719Z,7.40
2023-02-11T20:51:15.901Z,7.40
2023-02-11T20:53:47.702Z,7.40
2023-02-11T20:56:15.369Z,7.40
2023-02-11T20:58:42.318Z,7.30
2023-02-11T21:01:16.656Z,7.30
2023-02-11T21:03:50.840Z,7.30
2023-02-11T21:06:18.703Z,7.30
2023-02-11T21:08:45.454Z,7.30
2023-02-11T21:11:12.295Z,7.20
2023-02-11T21:13:41.136Z,7.30
2023-02-11T21:16:08.712Z,7.30
2023-02-11T21:18:35.668Z,7.30
2023-02-11T21:21:02.323Z,7.30
2023-02-11T21:23:29.264Z,7.30
2023-02-11T21:25:57.074Z,7.30
2023-02-11T21:28:27.702Z,7.20
2023-02-11T21:30:56.502Z,7.20
2023-02-11T21:33:25.003Z,7.20
2023-02-11T21:35:56.205Z,7.20
2023-02-11T21:38:23.880Z,7.20
2023-02-11T21:40:50.927Z,7.10
2023-02-11T21:43:17.941Z,7.10
2023-02-11T21:45:45.901Z,7.10
2023-02-11T21:48:13.797Z,7.10
2023-02-11T21:50:45.268Z,7.10
2023-02-11T21:53:12.407Z,7.10
2023-02-11T21:55:39.691Z,7.10
2023-02-11T21:58:06.506Z,7.10
2023-02-11T22:00:33.753Z,7.00
2023-02-11T22:03:00.418Z,7.00
2023-02-11T22:05:27.035Z,7.10
2023-02-11T22:07:53.616Z,7.10
2023-02-11T22:10:20.290Z,7.10
2023-02-11T22:12:46.896Z,7.10
2023-02-11T22:15:13.840Z,7.10
2023-02-11T22:17:40.404Z,7.10
2023-02-11T22:20:08.170Z,7.10
2023-02-11T22:22:35.253Z,7.10
2023-02-11T22:25:02.148Z,7.10
2023-02-11T22:27:28.886Z,7.10
2023-02-11T22:29:55.455Z,7.20
2023-02-11T22:32:22.129Z,7.10
2023-02-11T22:34:49.528Z,7.10
2023-02-11T22:37:17.452Z,7.10
2023-02-11T22:39:44.020Z,7.10
2023-02-11T22:42:10.574Z,7.10
2023-02-11T22:44:37.380Z,7.10
2023-02-11T22:47:03.979Z,7.10
2023-02-11T22:49:32.421Z,7.00
2023-02-11T22:51:59.375Z,7.00
2023-02-11T22:54:27.481Z,7.00
2023-02-11T22:56:54.101Z,7.00
2023-02-11T22:59:21.123Z,7.00
2023-02-11T23:01:47.938Z,7.00
2023-02-11T23:04:16.966Z,7.00
2023-02-11T23:06:43.882Z,7.00
2023-02-11T23:09:12.368Z,7.00
2023-02-11T23:11:40.428Z,7.00
2023-02-11T23:14:08.565Z,7.10
2023-02-11T23:16:35.475Z,7.10
2023-02-11T23:19:08.745Z,7.00
2023-02-11T23:21:38.431Z,7.00
2023-02-11T23:24:08.395Z,7.00
2023-02-11T23:26:35.180Z,7.00
2023-02-11T23:29:01.833Z,7.00
2023-02-11T23:31:33.704Z,7.00
2023-02-11T23:34:01.107Z,7.00
2023-02-11T23:36:27.991Z,7.10
2023-02-11T23:38:54.865Z,7.00
2023-02-11T23:41:22.440Z,7.10
2023-02-11T23:43:51.056Z,7.00
2023-02-11T23:46:17.794Z,7.10
2023-02-11T23:48:44.702Z,7.00
2023-02-11T23:51:11.269Z,7.10
2023-02-11T23:53:39.135Z,7.00
2023-02-11T23:56:07.706Z,7.00
2023-02-11T23:58:34.553Z,7.00
